Time;durP1;ratioP1;P1;durP2;ratioP2;P2;SDS_P1;SDS_P2;PMS_P1;PMS_P2;Temp;Humidity;BMP_temperature;BMP_pressure;BME280_temperature;BME280_humidity;BME280_pressure;Samples;Min_cycle;Max_cycle;Signal;HPM_P1;HPM_P2
2022/11/20 00:02:21;;;;;;;27.00;12.60;;;;;;;;;;5052556;28;20292;-63
2022/11/20 00:04:47;;;;;;;21.13;11.47;;;;;;;;;;5052842;28;20297;-63
2022/11/20 00:07:13;;;;;;;27.03;12.90;;;;;;;;;;5052465;28;20865;-63
2022/11/20 00:09:39;;;;;;;27.97;11.00;;;;;;;;;;5054370;28;20287;-63
2022/11/20 00:12:05;;;;;;;26.87;12.43;;;;;;;;;;5072750;28;20291;-63
2022/11/20 00:14:32;;;;;;;27.83;12.70;;;;;;;;;;5072356;28;20708;-63
2022/11/20 00:16:58;;;;;;;28.67;14.17;;;;;;;;;;5072082;28;20887;-63
2022/11/20 00:19:24;;;;;;;33.50;15.07;;;;;;;;;;5072520;28;20291;-63
2022/11/20 00:21:55;;;;;;;27.83;14.73;;;;;;;;;;5072369;28;20286;-63
2022/11/20 00:24:21;;;;;;;32.00;14.27;;;;;;;;;;5072361;28;20417;-63
2022/11/20 00:26:47;;;;;;;30.07;14.00;;;;;;;;;;5072068;28;20307;-63
2022/11/20 00:29:13;;;;;;;25.20;11.87;;;;;;;;;;5072239;28;20283;-63
2022/11/20 00:31:39;;;;;;;20.50;10.03;;;;;;;;;;5072003;28;20800;-63
2022/11/20 00:34:05;;;;;;;23.77;11.40;;;;;;;;;;5072290;28;20283;-63
2022/11/20 00:36:33;;;;;;;21.60;11.63;;;;;;;;;;5071828;28;20994;-63
2022/11/20 00:39:00;;;;;;;20.70;10.90;;;;;;;;;;5055279;28;20296;-63
2022/11/20 00:41:27;;;;;;;18.43;10.63;;;;;;;;;;5050998;28;20283;-63
2022/11/20 00:43:54;;;;;;;22.93;9.87;;;;;;;;;;5052199;28;20303;-63
2022/11/20 00:46:21;;;;;;;23.20;9.93;;;;;;;;;;5052002;28;20337;-63
2022/11/20 00:48:48;;;;;;;19.27;9.80;;;;;;;;;;5052041;28;20280;-63
2022/11/20 00:51:17;;;;;;;19.67;10.00;;;;;;;;;;5051789;28;20295;-62
2022/11/20 00:53:43;;;;;;;18.57;9.50;;;;;;;;;;5052306;28;20808;-63
2022/11/20 00:56:13;;;;;;;18.87;10.60;;;;;;;;;;5051685;28;20283;-63
2022/11/20 00:58:40;;;;;;;19.53;9.83;;;;;;;;;;5051870;28;20283;-63
2022/11/20 01:01:10;;;;;;;20.80;10.80;;;;;;;;;;5051645;28;20276;-63
2022/11/20 01:03:41;;;;;;;25.80;11.30;;;;;;;;;;5070849;28;20310;-63
2022/11/20 01:06:09;;;;;;;21.93;10.23;;;;;;;;;;5071284;28;20306;-63
2022/11/20 01:08:36;;;;;;;20.97;11.27;;;;;;;;;;5069341;28;20283;-63
2022/11/20 01:11:03;;;;;;;20.93;10.40;;;;;;;;;;5051674;28;20299;-63
2022/11/20 01:13:36;;;;;;;20.03;10.53;;;;;;;;;;5051158;28;20295;-63
2022/11/20 01:16:04;;;;;;;20.98;9.85;;;;;;;;;;5051224;28;20292;-63
2022/11/20 01:18:30;;;;;;;20.53;10.17;;;;;;;;;;5051106;28;20128;-63
2022/11/20 01:20:56;;;;;;;18.87;9.30;;;;;;;;;;5051555;28;20279;-63
2022/11/20 01:23:22;;;;;;;26.03;11.50;;;;;;;;;;5051128;28;20789;-63
2022/11/20 01:25:48;;;;;;;20.70;10.80;;;;;;;;;;5051534;28;20638;-63
2022/11/20 01:28:14;;;;;;;22.77;11.00;;;;;;;;;;5050856;28;20288;-63
2022/11/20 01:30:40;;;;;;;19.47;10.33;;;;;;;;;;5050920;28;20306;-63
2022/11/20 01:33:06;;;;;;;20.67;10.03;;;;;;;;;;5050830;28;20295;-63
2022/11/20 01:35:32;;;;;;;21.87;10.93;;;;;;;;;;5069168;28;20344;-63
2022/11/20 01:37:58;;;;;;;23.17;11.50;;;;;;;;;;5070328;28;20958;-63
2022/11/20 01:40:24;;;;;;;24.70;11.17;;;;;;;;;;5070328;28;20653;-63
2022/11/20 01:45:47;;;;;;;22.03;10.83;;;;;;;;;;5070584;28;20413;-63
2022/11/20 01:48:13;;;;;;;24.83;11.60;;;;;;;;;;5070586;28;20757;-63
2022/11/20 01:50:40;;;;;;;22.87;11.40;;;;;;;;;;5069013;28;20305;-62
2022/11/20 01:53:08;;;;;;;21.93;11.13;;;;;;;;;;5070045;28;20283;-63
2022/11/20 01:55:36;;;;;;;21.73;11.10;;;;;;;;;;5070570;28;20286;-63
2022/11/20 01:58:03;;;;;;;19.23;10.27;;;;;;;;;;5069877;28;20658;-63
2022/11/20 02:00:29;;;;;;;23.67;10.63;;;;;;;;;;5069628;28;20286;-63
2022/11/20 02:02:57;;;;;;;20.40;10.67;;;;;;;;;;5054179;28;20303;-63
2022/11/20 02:05:26;;;;;;;21.10;10.57;;;;;;;;;;5060141;28;20291;-63
2022/11/20 02:07:53;;;;;;;19.83;10.23;;;;;;;;;;5069373;28;20310;-63
2022/11/20 02:10:19;;;;;;;23.80;11.23;;;;;;;;;;5069249;28;20793;-63
2022/11/20 02:15:30;;;;;;;25.07;12.17;;;;;;;;;;5069588;28;20329;-63
2022/11/20 02:17:56;;;;;;;24.03;11.27;;;;;;;;;;5070050;28;20328;-63
2022/11/20 02:20:22;;;;;;;30.63;11.50;;;;;;;;;;5067918;28;20819;-63
2022/11/20 02:22:55;;;;;;;19.27;10.20;;;;;;;;;;5069721;28;20308;-63
2022/11/20 02:25:21;;;;;;;19.70;9.75;;;;;;;;;;5069712;28;20279;-63
2022/11/20 02:27:48;;;;;;;31.87;15.17;;;;;;;;;;5069839;28;20383;-63
2022/11/20 02:30:14;;;;;;;30.47;13.50;;;;;;;;;;5069306;28;20291;-63
2022/11/20 02:32:40;;;;;;;20.93;11.30;;;;;;;;;;5070082;28;20301;-63
2022/11/20 02:35:29;;;;;;;22.70;10.03;;;;;;;;;;5062500;28;20701;-63
2022/11/20 02:37:56;;;;;;;19.93;10.40;;;;;;;;;;5060529;28;20353;-63
2022/11/20 02:40:22;;;;;;;21.87;10.87;;;;;;;;;;5069847;28;20287;-63
2022/11/20 02:42:52;;;;;;;23.83;11.37;;;;;;;;;;5069958;28;20283;-63
2022/11/20 02:45:18;;;;;;;24.07;11.30;;;;;;;;;;5069719;28;20283;-63
2022/11/20 02:47:44;;;;;;;27.07;12.03;;;;;;;;;;5069816;28;20311;-63
2022/11/20 02:50:10;;;;;;;25.37;11.87;;;;;;;;;;5069711;28;20291;-63
2022/11/20 02:52:36;;;;;;;27.63;12.03;;;;;;;;;;5070040;28;20275;-63
2022/11/20 02:55:03;;;;;;;22.10;12.27;;;;;;;;;;5069969;28;20279;-63
2022/11/20 02:57:29;;;;;;;20.33;10.80;;;;;;;;;;5068117;28;20356;-63
2022/11/20 02:59:55;;;;;;;21.77;10.73;;;;;;;;;;5069610;28;20290;-63
2022/11/20 03:02:21;;;;;;;21.23;10.70;;;;;;;;;;5069486;28;20290;-63
2022/11/20 03:04:47;;;;;;;22.53;10.57;;;;;;;;;;5050741;28;20294;-63
2022/11/20 03:07:13;;;;;;;23.50;11.00;;;;;;;;;;5049432;28;20315;-63
2022/11/20 03:09:39;;;;;;;21.17;11.20;;;;;;;;;;5049280;28;20802;-63
2022/11/20 03:12:06;;;;;;;27.33;12.57;;;;;;;;;;5048885;28;20276;-63
2022/11/20 03:14:32;;;;;;;20.93;12.10;;;;;;;;;;5048968;28;20283;-63
2022/11/20 03:16:58;;;;;;;27.43;12.20;;;;;;;;;;5048151;28;20299;-63
2022/11/20 03:19:24;;;;;;;20.33;10.93;;;;;;;;;;5049392;28;20291;-63
2022/11/20 03:21:51;;;;;;;27.43;12.40;;;;;;;;;;5048958;28;20279;-63
2022/11/20 03:24:17;;;;;;;21.77;12.13;;;;;;;;;;5048484;28;20284;-63
2022/11/20 03:26:43;;;;;;;21.93;11.27;;;;;;;;;;5048843;28;20805;-63
2022/11/20 03:29:09;;;;;;;25.60;12.80;;;;;;;;;;5048900;28;20287;-63
2022/11/20 03:31:36;;;;;;;25.63;13.27;;;;;;;;;;5048615;28;20341;-63
2022/11/20 03:34:03;;;;;;;20.97;11.20;;;;;;;;;;5060511;28;20317;-63
2022/11/20 03:36:29;;;;;;;25.27;12.17;;;;;;;;;;5069378;28;20773;-63
2022/11/20 03:38:56;;;;;;;23.77;12.13;;;;;;;;;;5069282;28;20364;-63
2022/11/20 03:41:23;;;;;;;26.53;14.03;;;;;;;;;;5069504;28;20686;-63
2022/11/20 03:43:50;;;;;;;26.80;13.20;;;;;;;;;;5069186;28;20286;-63
2022/11/20 03:46:17;;;;;;;24.00;12.40;;;;;;;;;;5068982;28;20681;-63
2022/11/20 03:48:43;;;;;;;24.97;11.97;;;;;;;;;;5069216;28;20284;-63
2022/11/20 03:51:12;;;;;;;22.97;11.63;;;;;;;;;;5069712;28;20297;-63
2022/11/20 03:53:38;;;;;;;22.57;11.27;;;;;;;;;;5069513;28;20291;-63
2022/11/20 03:56:05;;;;;;;24.37;11.73;;;;;;;;;;5064261;28;20305;-63
2022/11/20 03:58:31;;;;;;;24.97;12.40;;;;;;;;;;5067422;28;20788;-63
2022/11/20 04:00:57;;;;;;;22.97;11.97;;;;;;;;;;5068959;28;20780;-64
2022/11/20 04:03:23;;;;;;;24.93;13.07;;;;;;;;;;5060676;28;20378;-63
2022/11/20 04:05:49;;;;;;;24.97;11.70;;;;;;;;;;5049129;28;20373;-64
2022/11/20 04:08:15;;;;;;;30.03;13.87;;;;;;;;;;5049021;28;20311;-63
2022/11/20 04:10:41;;;;;;;21.87;12.53;;;;;;;;;;5047318;28;20292;-63
2022/11/20 04:13:07;;;;;;;23.53;12.87;;;;;;;;;;5049221;28;20279;-63
2022/11/20 04:15:33;;;;;;;28.90;12.77;;;;;;;;;;5049781;28;20294;-63
2022/11/20 04:17:59;;;;;;;24.10;11.57;;;;;;;;;;5051393;28;20348;-63
2022/11/20 04:20:25;;;;;;;26.63;13.10;;;;;;;;;;5053109;28;20291;-63
2022/11/20 04:22:54;;;;;;;25.00;12.50;;;;;;;;;;5052422;28;20289;-63
2022/11/20 04:25:20;;;;;;;25.73;11.90;;;;;;;;;;5052477;28;20295;-63
2022/11/20 04:27:46;;;;;;;26.17;12.83;;;;;;;;;;5057814;28;20650;-63
2022/11/20 04:30:12;;;;;;;24.57;12.30;;;;;;;;;;5072439;28;20283;-63
2022/11/20 04:32:39;;;;;;;28.03;12.50;;;;;;;;;;5071461;28;20283;-63
2022/11/20 04:35:05;;;;;;;28.27;13.53;;;;;;;;;;5071280;28;20424;-63
2022/11/20 04:37:31;;;;;;;22.80;12.17;;;;;;;;;;5070936;28;20313;-64
2022/11/20 04:39:57;;;;;;;26.80;12.83;;;;;;;;;;5070755;28;20286;-63
2022/11/20 04:42:29;;;;;;;23.63;12.10;;;;;;;;;;5072079;28;20343;-63
2022/11/20 04:44:55;;;;;;;24.30;12.93;;;;;;;;;;5072297;28;20340;-64
2022/11/20 04:47:22;;;;;;;31.93;13.63;;;;;;;;;;5071649;28;20355;-64
2022/11/20 04:49:48;;;;;;;26.00;13.83;;;;;;;;;;5071553;28;20294;-63
2022/11/20 04:52:14;;;;;;;30.67;15.47;;;;;;;;;;5071955;28;20275;-63
2022/11/20 04:54:40;;;;;;;27.60;12.90;;;;;;;;;;5071772;28;20295;-63
2022/11/20 04:57:06;;;;;;;25.17;12.97;;;;;;;;;;5052817;28;20307;-63
2022/11/20 04:59:32;;;;;;;25.73;12.43;;;;;;;;;;5051809;28;20699;-63
2022/11/20 05:01:58;;;;;;;22.80;11.77;;;;;;;;;;5051676;28;20287;-64
2022/11/20 05:04:24;;;;;;;24.70;12.83;;;;;;;;;;5067893;28;20302;-63
2022/11/20 05:06:51;;;;;;;25.50;13.03;;;;;;;;;;5071589;28;20800;-64
2022/11/20 05:09:17;;;;;;;22.50;12.23;;;;;;;;;;5071879;28;20290;-63
2022/11/20 05:11:43;;;;;;;27.07;13.83;;;;;;;;;;5071705;28;20332;-63
2022/11/20 05:14:09;;;;;;;27.47;12.90;;;;;;;;;;5071194;28;20652;-63
2022/11/20 05:16:38;;;;;;;23.47;12.23;;;;;;;;;;5070357;28;20291;-64
2022/11/20 05:19:04;;;;;;;23.23;13.37;;;;;;;;;;5071434;28;20372;-64
2022/11/20 05:21:32;;;;;;;22.73;12.23;;;;;;;;;;5071567;28;20374;-64
2022/11/20 05:23:58;;;;;;;26.77;14.33;;;;;;;;;;5071272;28;20283;-63
2022/11/20 05:26:24;;;;;;;25.90;13.00;;;;;;;;;;5071502;28;20303;-63
2022/11/20 05:28:51;;;;;;;23.73;12.27;;;;;;;;;;5062958;28;20296;-63
2022/11/20 05:31:24;;;;;;;28.37;14.13;;;;;;;;;;5067100;28;20318;-63
2022/11/20 05:33:50;;;;;;;24.58;13.02;;;;;;;;;;5071201;28;20378;-63
2022/11/20 05:36:17;;;;;;;25.43;13.03;;;;;;;;;;5071296;28;20044;-64
2022/11/20 05:38:43;;;;;;;24.77;14.40;;;;;;;;;;5071245;28;20287;-63
2022/11/20 05:41:16;;;;;;;26.67;13.53;;;;;;;;;;5070830;28;20291;-64
2022/11/20 05:43:43;;;;;;;25.30;11.85;;;;;;;;;;5069444;28;20306;-64
2022/11/20 05:46:11;;;;;;;27.00;13.07;;;;;;;;;;5070940;28;20045;-64
2022/11/20 05:48:38;;;;;;;30.00;14.03;;;;;;;;;;5071244;28;20283;-64
2022/11/20 05:51:05;;;;;;;26.53;14.10;;;;;;;;;;5070827;28;20283;-64
2022/11/20 05:53:32;;;;;;;33.43;15.83;;;;;;;;;;5070802;28;20340;-63
2022/11/20 05:56:02;;;;;;;27.37;14.63;;;;;;;;;;5070495;28;20335;-63
2022/11/20 05:58:28;;;;;;;27.43;13.93;;;;;;;;;;5070898;28;20283;-64
2022/11/20 06:00:55;;;;;;;29.07;14.77;;;;;;;;;;5070934;28;20306;-63
2022/11/20 06:03:21;;;;;;;26.47;13.73;;;;;;;;;;5069220;28;20291;-63
2022/11/20 06:05:47;;;;;;;32.80;15.13;;;;;;;;;;5070388;28;20748;-63
2022/11/20 06:08:13;;;;;;;35.60;16.33;;;;;;;;;;5070294;28;20389;-64
2022/11/20 06:10:39;;;;;;;32.57;15.77;;;;;;;;;;5070544;28;20285;-64
2022/11/20 06:13:05;;;;;;;29.90;15.97;;;;;;;;;;5070318;28;20290;-64
2022/11/20 06:15:31;;;;;;;29.07;14.53;;;;;;;;;;5068726;28;20295;-63
2022/11/20 06:17:58;;;;;;;29.90;16.00;;;;;;;;;;5070447;28;20053;-63
2022/11/20 06:20:24;;;;;;;31.77;16.33;;;;;;;;;;5070644;28;20298;-64
2022/11/20 06:22:50;;;;;;;29.80;15.37;;;;;;;;;;5070474;28;20279;-64
2022/11/20 06:25:16;;;;;;;29.50;15.90;;;;;;;;;;5070521;28;20279;-64
2022/11/20 06:27:42;;;;;;;29.87;15.40;;;;;;;;;;5070144;28;20820;-64
2022/11/20 06:30:09;;;;;;;26.67;14.67;;;;;;;;;;5068411;28;20661;-64
2022/11/20 06:32:35;;;;;;;27.77;15.13;;;;;;;;;;5069936;28;20979;-64
2022/11/20 06:35:01;;;;;;;29.93;15.37;;;;;;;;;;5069366;28;20695;-65
2022/11/20 06:37:27;;;;;;;30.00;16.90;;;;;;;;;;5069398;28;20381;-62
2022/11/20 06:39:53;;;;;;;30.60;17.23;;;;;;;;;;5068033;28;20283;-64
2022/11/20 06:42:19;;;;;;;27.77;15.57;;;;;;;;;;5069340;28;20283;-64
2022/11/20 06:44:45;;;;;;;24.83;14.60;;;;;;;;;;5066882;28;20375;-63
2022/11/20 06:47:11;;;;;;;27.83;15.30;;;;;;;;;;5069371;28;20710;-63
2022/11/20 06:49:38;;;;;;;30.20;16.30;;;;;;;;;;5069503;28;20291;-64
2022/11/20 06:52:04;;;;;;;32.10;15.33;;;;;;;;;;5069020;28;20275;-63
2022/11/20 06:54:30;;;;;;;28.77;14.93;;;;;;;;;;5069678;28;20283;-63
2022/11/20 06:56:56;;;;;;;28.93;16.00;;;;;;;;;;5069939;28;20298;-63
2022/11/20 06:59:22;;;;;;;29.40;15.70;;;;;;;;;;5070165;28;20818;-63
2022/11/20 07:01:48;;;;;;;27.73;15.40;;;;;;;;;;5069384;28;20347;-63
2022/11/20 07:04:14;;;;;;;27.47;14.03;;;;;;;;;;5069695;28;20290;-63
2022/11/20 07:06:40;;;;;;;23.93;13.10;;;;;;;;;;5069594;28;20886;-63
2022/11/20 07:09:06;;;;;;;27.43;14.20;;;;;;;;;;5068689;28;20313;-63
2022/11/20 07:11:33;;;;;;;27.77;15.73;;;;;;;;;;5050059;28;20349;-63
2022/11/20 07:13:59;;;;;;;29.43;15.70;;;;;;;;;;5049976;28;20299;-63
2022/11/20 07:16:25;;;;;;;28.70;14.73;;;;;;;;;;5069083;28;20882;-63
2022/11/20 07:18:51;;;;;;;29.20;15.27;;;;;;;;;;5069331;28;20413;-63
2022/11/20 07:21:17;;;;;;;32.30;16.27;;;;;;;;;;5069035;28;20290;-63
2022/11/20 07:23:43;;;;;;;28.03;14.47;;;;;;;;;;5069054;28;20283;-63
2022/11/20 07:26:11;;;;;;;27.23;15.20;;;;;;;;;;5068977;28;20279;-63
2022/11/20 07:28:37;;;;;;;25.17;14.10;;;;;;;;;;5069368;28;20287;-63
2022/11/20 07:31:04;;;;;;;32.10;16.77;;;;;;;;;;5067629;28;20295;-63
2022/11/20 07:33:30;;;;;;;28.77;14.30;;;;;;;;;;5069145;28;20290;-63
2022/11/20 07:35:59;;;;;;;29.77;15.80;;;;;;;;;;5068416;28;20278;-63
2022/11/20 07:38:25;;;;;;;29.57;15.70;;;;;;;;;;5069312;28;20351;-63
2022/11/20 07:40:55;;;;;;;27.23;14.37;;;;;;;;;;5069228;28;20283;-63
2022/11/20 07:43:21;;;;;;;27.23;15.13;;;;;;;;;;5069119;28;20290;-63
2022/11/20 07:45:47;;;;;;;32.20;16.87;;;;;;;;;;5052639;28;20287;-63
2022/11/20 07:48:13;;;;;;;28.37;14.53;;;;;;;;;;5048775;28;20292;-63
2022/11/20 07:50:39;;;;;;;30.83;16.50;;;;;;;;;;5049910;28;20290;-63
2022/11/20 07:53:06;;;;;;;29.07;16.60;;;;;;;;;;5052945;28;20279;-63
2022/11/20 07:55:32;;;;;;;26.83;15.53;;;;;;;;;;5052525;28;20382;-63
2022/11/20 07:57:59;;;;;;;32.70;17.53;;;;;;;;;;5051082;28;20777;-63
2022/11/20 08:00:25;;;;;;;34.40;17.13;;;;;;;;;;5052416;28;20280;-64
2022/11/20 08:02:52;;;;;;;31.73;17.30;;;;;;;;;;5052761;28;20330;-63
2022/11/20 08:05:18;;;;;;;32.37;16.63;;;;;;;;;;5052592;28;20290;-63
2022/11/20 08:07:44;;;;;;;29.60;16.90;;;;;;;;;;5050583;28;20323;-63
2022/11/20 08:10:11;;;;;;;28.83;16.37;;;;;;;;;;5052818;28;20343;-63
2022/11/20 08:15:28;;;;;;;27.57;16.80;;;;;;;;;;5065473;28;20291;-64
2022/11/20 08:18:00;;;;;;;29.00;17.07;;;;;;;;;;5071873;28;20283;-64
2022/11/20 08:20:26;;;;;;;29.83;17.37;;;;;;;;;;5071736;28;20811;-64
2022/11/20 08:22:52;;;;;;;30.80;17.77;;;;;;;;;;5072338;28;20293;-62
2022/11/20 08:25:18;;;;;;;32.17;18.13;;;;;;;;;;5071767;28;20287;-62
2022/11/20 08:27:44;;;;;;;28.67;16.77;;;;;;;;;;5071563;28;20748;-62
2022/11/20 08:30:10;;;;;;;32.27;18.90;;;;;;;;;;5071818;28;20707;-62
2022/11/20 08:32:37;;;;;;;26.53;15.47;;;;;;;;;;5072056;28;20283;-62
2022/11/20 08:35:03;;;;;;;27.47;16.13;;;;;;;;;;5071833;28;20337;-64
2022/11/20 08:37:29;;;;;;;24.27;13.80;;;;;;;;;;5071574;28;20290;-63
2022/11/20 08:39:56;;;;;;;27.37;14.57;;;;;;;;;;5070821;28;20294;-63
2022/11/20 08:42:22;;;;;;;25.70;14.93;;;;;;;;;;5072153;28;21153;-63
2022/11/20 08:44:49;;;;;;;23.90;14.63;;;;;;;;;;5065009;28;20657;-63
2022/11/20 08:47:15;;;;;;;26.67;15.67;;;;;;;;;;5060886;28;20313;-62
2022/11/20 08:49:41;;;;;;;24.20;14.33;;;;;;;;;;5071772;28;20283;-63
2022/11/20 08:52:07;;;;;;;27.87;14.93;;;;;;;;;;5071347;28;20291;-62
2022/11/20 08:54:33;;;;;;;25.10;15.83;;;;;;;;;;5071878;28;20777;-63
2022/11/20 08:56:59;;;;;;;26.40;14.43;;;;;;;;;;5071942;28;20362;-62
2022/11/20 08:59:25;;;;;;;27.63;15.40;;;;;;;;;;5071640;28;21004;-63
2022/11/20 09:01:51;;;;;;;25.57;14.40;;;;;;;;;;5070849;28;20648;-63
2022/11/20 09:04:17;;;;;;;27.77;16.97;;;;;;;;;;5071446;28;20378;-63
2022/11/20 09:06:43;;;;;;;30.83;15.60;;;;;;;;;;5071636;28;20703;-63
2022/11/20 09:09:09;;;;;;;26.63;15.50;;;;;;;;;;5069509;28;20295;-63
2022/11/20 09:11:36;;;;;;;28.07;15.17;;;;;;;;;;5055559;28;20299;-63
2022/11/20 09:14:02;;;;;;;28.13;16.13;;;;;;;;;;5069664;28;20788;-63
2022/11/20 09:16:28;;;;;;;24.90;15.43;;;;;;;;;;5070578;28;20348;-63
2022/11/20 09:18:54;;;;;;;28.67;15.83;;;;;;;;;;5071226;28;20290;-63
2022/11/20 09:21:22;;;;;;;27.63;16.37;;;;;;;;;;5071543;28;20295;-63
2022/11/20 09:23:48;;;;;;;25.67;15.57;;;;;;;;;;5067115;28;20299;-63
2022/11/20 09:26:14;;;;;;;29.63;16.27;;;;;;;;;;5071070;28;20295;-63
2022/11/20 09:28:40;;;;;;;30.63;16.53;;;;;;;;;;5071004;28;20316;-63
2022/11/20 09:31:14;;;;;;;28.20;17.13;;;;;;;;;;5071255;28;20339;-63
2022/11/20 09:33:40;;;;;;;40.67;20.70;;;;;;;;;;5071422;28;20287;-63
2022/11/20 09:36:07;;;;;;;32.80;18.53;;;;;;;;;;5071134;28;20336;-63
2022/11/20 09:38:33;;;;;;;31.87;20.57;;;;;;;;;;5070988;28;20282;-63
2022/11/20 09:41:03;;;;;;;28.20;16.83;;;;;;;;;;5058864;28;20899;-63
2022/11/20 09:43:38;;;;;;;29.43;17.60;;;;;;;;;;5058181;28;20286;-63
2022/11/20 09:46:10;;;;;;;24.07;15.57;;;;;;;;;;5062775;28;20298;-63
2022/11/20 09:48:43;;;;;;;25.17;15.90;;;;;;;;;;5057746;28;20287;-63
2022/11/20 09:51:15;;;;;;;23.63;16.07;;;;;;;;;;5067692;28;20295;-63
2022/11/20 09:53:47;;;;;;;24.43;15.33;;;;;;;;;;5070767;28;20348;-63
2022/11/20 09:56:13;;;;;;;18.97;13.23;;;;;;;;;;5069723;28;20416;-63
2022/11/20 09:58:39;;;;;;;25.50;16.00;;;;;;;;;;5070394;28;20052;-63
2022/11/20 10:01:15;;;;;;;21.00;12.00;;;;;;;;;;5069792;28;20287;-63
2022/11/20 10:03:41;;;;;;;15.23;10.53;;;;;;;;;;5069285;28;20056;-64
2022/11/20 10:06:11;;;;;;;14.93;10.97;;;;;;;;;;5069409;28;20088;-63
2022/11/20 10:08:41;;;;;;;14.37;9.90;;;;;;;;;;5069416;28;20041;-64
2022/11/20 10:11:07;;;;;;;20.17;11.53;;;;;;;;;;5070235;28;20040;-63
2022/11/20 10:13:48;;;;;;;18.73;12.50;;;;;;;;;;5070110;28;20114;-63
2022/11/20 10:16:27;;;;;;;17.50;10.87;;;;;;;;;;5053587;28;20067;-63
2022/11/20 10:19:02;;;;;;;15.47;10.27;;;;;;;;;;5066692;28;20458;-63
2022/11/20 10:21:33;;;;;;;16.33;9.20;;;;;;;;;;5069445;28;20055;-64
2022/11/20 10:24:10;;;;;;;16.47;8.70;;;;;;;;;;5069289;28;20127;-64
2022/11/20 10:27:00;;;;;;;16.03;9.57;;;;;;;;;;5067680;28;20074;-64
2022/11/20 10:29:46;;;;;;;15.40;9.43;;;;;;;;;;5069104;28;20041;-63
2022/11/20 10:32:18;;;;;;;12.23;8.33;;;;;;;;;;5066486;28;20051;-62
2022/11/20 10:34:50;;;;;;;13.50;9.10;;;;;;;;;;5069913;28;20131;-66
2022/11/20 10:37:17;;;;;;;16.30;11.73;;;;;;;;;;5069089;28;20410;-63
2022/11/20 10:39:47;;;;;;;12.67;8.60;;;;;;;;;;5069193;28;20097;-63
2022/11/20 10:42:21;;;;;;;15.43;9.83;;;;;;;;;;5058242;28;20060;-63
2022/11/20 10:45:01;;;;;;;11.27;8.30;;;;;;;;;;5049086;28;20049;-63
2022/11/20 10:47:28;;;;;;;12.03;8.87;;;;;;;;;;5048859;28;20064;-63
2022/11/20 10:49:56;;;;;;;12.93;9.07;;;;;;;;;;5056399;28;20041;-63
2022/11/20 10:52:37;;;;;;;14.07;8.80;;;;;;;;;;5048306;28;20049;-62
2022/11/20 10:55:24;;;;;;;13.37;8.93;;;;;;;;;;5048648;28;20048;-64
2022/11/20 10:57:50;;;;;;;10.17;7.43;;;;;;;;;;5047491;28;20868;-63
2022/11/20 11:00:17;;;;;;;9.33;6.90;;;;;;;;;;5048307;28;20053;-63
2022/11/20 11:02:46;;;;;;;9.70;6.67;;;;;;;;;;5048275;28;20048;-63
2022/11/20 11:05:15;;;;;;;9.87;7.13;;;;;;;;;;5048428;28;20538;-64
2022/11/20 11:07:42;;;;;;;12.27;7.73;;;;;;;;;;5048485;28;20053;-63
2022/11/20 11:10:30;;;;;;;9.73;6.93;;;;;;;;;;5048531;28;20052;-63
2022/11/20 11:12:56;;;;;;;10.77;7.47;;;;;;;;;;5048087;28;20068;-63
2022/11/20 11:15:26;;;;;;;9.87;7.23;;;;;;;;;;5060578;28;20049;-63
2022/11/20 11:17:52;;;;;;;11.80;7.43;;;;;;;;;;5068949;28;20052;-62
2022/11/20 11:20:19;;;;;;;10.33;7.27;;;;;;;;;;5068207;28;20048;-63
2022/11/20 11:22:50;;;;;;;10.37;7.40;;;;;;;;;;5067733;28;20089;-63
2022/11/20 11:25:20;;;;;;;13.17;7.87;;;;;;;;;;5068330;28;20458;-63
2022/11/20 11:27:47;;;;;;;11.87;8.90;;;;;;;;;;5068330;28;20106;-63
2022/11/20 11:30:15;;;;;;;11.83;8.10;;;;;;;;;;5067815;28;20048;-63
2022/11/20 11:32:41;;;;;;;12.07;8.23;;;;;;;;;;5067721;28;20086;-61
2022/11/20 11:35:20;;;;;;;12.30;8.87;;;;;;;;;;5068023;28;20044;-61
2022/11/20 11:37:46;;;;;;;10.53;7.37;;;;;;;;;;5066856;28;20045;-61
2022/11/20 11:40:13;;;;;;;15.27;8.87;;;;;;;;;;5062157;28;20049;-62
2022/11/20 11:42:43;;;;;;;12.67;8.53;;;;;;;;;;5048423;28;20041;-62
2022/11/20 11:45:17;;;;;;;13.10;9.17;;;;;;;;;;5047820;28;20198;-62
2022/11/20 11:47:43;;;;;;;11.43;8.15;;;;;;;;;;5047625;28;20099;-62
2022/11/20 11:50:09;;;;;;;13.70;8.97;;;;;;;;;;5049060;28;20458;-62
2022/11/20 11:52:43;;;;;;;12.80;9.43;;;;;;;;;;5047937;28;20049;-61
2022/11/20 11:55:14;;;;;;;14.37;8.70;;;;;;;;;;5048105;28;20064;-61
2022/11/20 11:57:46;;;;;;;12.93;8.73;;;;;;;;;;5046572;28;20041;-61
2022/11/20 12:00:14;;;;;;;13.07;9.17;;;;;;;;;;5047804;28;20053;-62
2022/11/20 12:02:49;;;;;;;15.10;9.47;;;;;;;;;;5047781;28;20507;-61
2022/11/20 12:05:29;;;;;;;11.87;8.47;;;;;;;;;;5059927;28;20094;-62
2022/11/20 12:08:14;;;;;;;14.53;9.23;;;;;;;;;;5067195;28;20051;-62
2022/11/20 12:10:53;;;;;;;12.40;8.37;;;;;;;;;;5063377;28;20040;-62
2022/11/20 12:13:31;;;;;;;11.63;8.33;;;;;;;;;;5068093;28;20051;-62
2022/11/20 12:15:57;;;;;;;15.37;8.73;;;;;;;;;;5066774;28;20281;-62
2022/11/20 12:18:23;;;;;;;11.43;8.00;;;;;;;;;;5067700;28;20044;-62
2022/11/20 12:21:04;;;;;;;12.53;8.83;;;;;;;;;;5068086;28;20048;-63
2022/11/20 12:23:30;;;;;;;13.47;9.13;;;;;;;;;;5057218;28;20071;-62
2022/11/20 12:25:59;;;;;;;15.33;10.27;;;;;;;;;;5066494;28;20045;-62
2022/11/20 12:28:37;;;;;;;12.97;8.47;;;;;;;;;;5067292;28;20548;-62
2022/11/20 12:31:15;;;;;;;15.00;9.50;;;;;;;;;;5067182;28;20033;-62
2022/11/20 12:33:48;;;;;;;15.27;10.20;;;;;;;;;;5068083;28;20040;-62
2022/11/20 12:36:23;;;;;;;14.93;9.07;;;;;;;;;;5067376;28;20109;-63
2022/11/20 12:39:08;;;;;;;15.03;9.53;;;;;;;;;;5070168;28;20090;-62
2022/11/20 12:45:09;;;;;;;13.00;9.00;;;;;;;;;;5050257;28;20049;-62
2022/11/20 12:47:44;;;;;;;16.03;10.83;;;;;;;;;;5048483;28;20060;-62
2022/11/20 12:50:36;;;;;;;17.67;11.23;;;;;;;;;;5052086;28;20049;-62
2022/11/20 12:53:05;;;;;;;15.20;10.40;;;;;;;;;;5057660;28;20148;-62
2022/11/20 12:55:37;;;;;;;14.80;10.07;;;;;;;;;;5049340;28;20053;-62
2022/11/20 12:58:12;;;;;;;15.70;9.63;;;;;;;;;;5059390;28;20527;-62
2022/11/20 13:00:43;;;;;;;15.03;10.70;;;;;;;;;;5052452;28;20059;-62
2022/11/20 13:03:10;;;;;;;16.73;10.60;;;;;;;;;;5070417;28;20044;-62
2022/11/20 13:05:42;;;;;;;14.80;10.63;;;;;;;;;;5053658;28;20526;-63
2022/11/20 13:08:20;;;;;;;16.90;9.93;;;;;;;;;;5069247;28;20044;-62
2022/11/20 13:11:04;;;;;;;17.00;10.93;;;;;;;;;;5064418;28;20045;-62
2022/11/20 13:13:30;;;;;;;15.37;10.60;;;;;;;;;;5049629;28;20110;-62
2022/11/20 13:15:59;;;;;;;15.43;10.33;;;;;;;;;;5050987;28;20041;-62
2022/11/20 13:18:25;;;;;;;14.73;9.90;;;;;;;;;;5070551;28;20045;-62
2022/11/20 13:20:51;;;;;;;15.10;9.73;;;;;;;;;;5069478;28;20049;-62
2022/11/20 13:23:27;;;;;;;15.23;10.00;;;;;;;;;;5050453;28;20063;-62
2022/11/20 13:26:14;;;;;;;15.20;11.20;;;;;;;;;;5050512;28;20420;-63
2022/11/20 13:28:40;;;;;;;15.37;10.63;;;;;;;;;;5049858;28;20503;-62
2022/11/20 13:31:24;;;;;;;16.57;11.20;;;;;;;;;;5050293;28;20072;-63
2022/11/20 13:33:50;;;;;;;;;;;;;;;;;;5050778;28;20128;-63
2022/11/20 13:36:26;;;;;;;15.27;10.00;;;;;;;;;;5050013;28;20066;-64
2022/11/20 13:38:54;;;;;;;15.90;10.03;;;;;;;;;;5049593;28;20424;-64
2022/11/20 13:41:39;;;;;;;16.00;10.20;;;;;;;;;;5048723;28;20088;-63
2022/11/20 13:44:11;;;;;;;17.53;10.50;;;;;;;;;;5047959;28;20518;-63
2022/11/20 13:46:38;;;;;;;17.37;11.03;;;;;;;;;;5049045;28;20040;-65
2022/11/20 13:49:09;;;;;;;16.23;10.03;;;;;;;;;;5049703;28;20041;-62
2022/11/20 13:51:45;;;;;;;16.63;10.87;;;;;;;;;;5049853;28;20041;-62
2022/11/20 13:54:22;;;;;;;14.43;10.20;;;;;;;;;;5049346;28;20132;-62
2022/11/20 13:56:51;;;;;;;15.33;9.30;;;;;;;;;;5049971;28;20055;-62
2022/11/20 13:59:32;;;;;;;16.40;10.23;;;;;;;;;;5048117;28;20052;-62
2022/11/20 14:02:00;;;;;;;18.60;11.27;;;;;;;;;;5049112;28;20057;-62
2022/11/20 14:04:28;;;;;;;14.73;9.37;;;;;;;;;;5048418;28;20056;-62
2022/11/20 14:06:54;;;;;;;13.97;9.90;;;;;;;;;;5049496;28;20495;-62
2022/11/20 14:09:28;;;;;;;16.03;10.40;;;;;;;;;;5053136;28;20072;-62
2022/11/20 14:11:54;;;;;;;15.53;10.57;;;;;;;;;;5049360;28;20045;-62
2022/11/20 14:14:21;;;;;;;15.90;10.53;;;;;;;;;;5048999;28;20425;-62
2022/11/20 14:16:48;;;;;;;23.20;11.33;;;;;;;;;;5049251;28;20045;-62
2022/11/20 14:19:17;;;;;;;16.27;11.73;;;;;;;;;;5049021;28;20045;-62
2022/11/20 14:21:45;;;;;;;30.20;13.13;;;;;;;;;;5048890;28;20049;-62
2022/11/20 14:24:12;;;;;;;15.47;10.63;;;;;;;;;;5049299;28;20037;-62
2022/11/20 14:26:45;;;;;;;15.63;10.57;;;;;;;;;;5049081;28;20083;-62
2022/11/20 14:29:19;;;;;;;17.88;12.35;;;;;;;;;;5063943;28;20476;-63
2022/11/20 14:31:46;;;;;;;16.73;11.17;;;;;;;;;;5068728;28;20045;-63
2022/11/20 14:34:29;;;;;;;18.93;10.90;;;;;;;;;;5069036;28;20094;-63
2022/11/20 14:36:59;;;;;;;18.02;11.07;;;;;;;;;;5069299;28;20056;-63
2022/11/20 14:39:36;;;;;;;14.80;9.73;;;;;;;;;;5068868;28;20113;-63
2022/11/20 14:42:03;;;;;;;16.47;10.30;;;;;;;;;;5068449;28;20052;-63